sensor_id;sensor_type;location;lat;lon;timestamp;temperature;humidity
78536;SHT31;67829;51.968;5.684;2024-01-27T00:00:07;6.0;69.9
78536;SHT31;67829;51.968;5.684;2024-01-27T00:02:36;6.0;70.0
78536;SHT31;67829;51.968;5.684;2024-01-27T00:05:08;6.0;70.0
78536;SHT31;67829;51.968;5.684;2024-01-27T00:07:39;6.0;70.0
78536;SHT31;67829;51.968;5.684;2024-01-27T00:10:09;6.0;70.1
78536;SHT31;67829;51.968;5.684;2024-01-27T00:12:38;6.0;70.2
78536;SHT31;67829;51.968;5.684;2024-01-27T00:15:09;5.9;70.4
78536;SHT31;67829;51.968;5.684;2024-01-27T00:17:37;5.9;70.7
78536;SHT31;67829;51.968;5.684;2024-01-27T00:20:07;5.9;70.6
78536;SHT31;67829;51.968;5.684;2024-01-27T00:22:38;5.9;70.0
78536;SHT31;67829;51.968;5.684;2024-01-27T00:25:10;5.9;69.8
78536;SHT31;67829;51.968;5.684;2024-01-27T00:27:38;5.9;69.9
78536;SHT31;67829;51.968;5.684;2024-01-27T00:30:07;5.9;69.8
78536;SHT31;67829;51.968;5.684;2024-01-27T00:32:37;5.9;69.8
78536;SHT31;67829;51.968;5.684;2024-01-27T00:35:09;5.9;69.8
78536;SHT31;67829;51.968;5.684;2024-01-27T00:37:41;5.9;69.5
78536;SHT31;67829;51.968;5.684;2024-01-27T00:40:11;5.9;69.3
78536;SHT31;67829;51.968;5.684;2024-01-27T00:42:40;5.9;69.2
78536;SHT31;67829;51.968;5.684;2024-01-27T00:45:10;5.9;69.2
78536;SHT31;67829;51.968;5.684;2024-01-27T00:47:38;5.9;69.3
78536;SHT31;67829;51.968;5.684;2024-01-27T00:50:07;5.9;69.4
78536;SHT31;67829;51.968;5.684;2024-01-27T00:52:37;5.8;69.2
78536;SHT31;67829;51.968;5.684;2024-01-27T00:55:07;5.8;69.2
78536;SHT31;67829;51.968;5.684;2024-01-27T00:57:35;5.8;69.5
78536;SHT31;67829;51.968;5.684;2024-01-27T01:00:06;5.8;69.8
78536;SHT31;67829;51.968;5.684;2024-01-27T01:02:35;5.8;69.8
78536;SHT31;67829;51.968;5.684;2024-01-27T01:05:04;5.7;69.7
78536;SHT31;67829;51.968;5.684;2024-01-27T01:07:33;5.7;69.9
78536;SHT31;67829;51.968;5.684;2024-01-27T01:10:01;5.7;69.9
78536;SHT31;67829;51.968;5.684;2024-01-27T01:12:30;5.7;70.2
78536;SHT31;67829;51.968;5.684;2024-01-27T01:14:59;5.7;70.2
78536;SHT31;67829;51.968;5.684;2024-01-27T01:17:27;5.7;70.3
78536;SHT31;67829;51.968;5.684;2024-01-27T01:19:56;5.7;69.9
78536;SHT31;67829;51.968;5.684;2024-01-27T01:22:24;5.6;70.0
78536;SHT31;67829;51.968;5.684;2024-01-27T01:24:53;5.6;69.9
78536;SHT31;67829;51.968;5.684;2024-01-27T01:27:21;5.6;69.8
78536;SHT31;67829;51.968;5.684;2024-01-27T01:29:50;5.6;69.9
78536;SHT31;67829;51.968;5.684;2024-01-27T01:32:18;5.6;70.1
78536;SHT31;67829;51.968;5.684;2024-01-27T01:34:48;5.6;70.0
78536;SHT31;67829;51.968;5.684;2024-01-27T01:37:16;5.6;70.1
78536;SHT31;67829;51.968;5.684;2024-01-27T01:39:44;5.6;70.1
78536;SHT31;67829;51.968;5.684;2024-01-27T01:42:13;5.5;70.4
78536;SHT31;67829;51.968;5.684;2024-01-27T01:44:41;5.5;70.5
78536;SHT31;67829;51.968;5.684;2024-01-27T01:47:10;5.5;70.6
78536;SHT31;67829;51.968;5.684;2024-01-27T01:49:40;5.5;70.5
78536;SHT31;67829;51.968;5.684;2024-01-27T01:52:10;5.5;70.3
78536;SHT31;67829;51.968;5.684;2024-01-27T01:54:43;5.5;70.4
78536;SHT31;67829;51.968;5.684;2024-01-27T01:57:12;5.4;70.4
78536;SHT31;67829;51.968;5.684;2024-01-27T01:59:41;5.4;70.7
78536;SHT31;67829;51.968;5.684;2024-01-27T02:02:11;5.4;70.2
78536;SHT31;67829;51.968;5.684;2024-01-27T02:04:43;5.4;70.1
78536;SHT31;67829;51.968;5.684;2024-01-27T02:07:12;5.4;70.3
78536;SHT31;67829;51.968;5.684;2024-01-27T02:09:41;5.4;70.0
78536;SHT31;67829;51.968;5.684;2024-01-27T02:12:10;5.4;69.8
78536;SHT31;67829;51.968;5.684;2024-01-27T02:14:39;5.4;69.5
78536;SHT31;67829;51.968;5.684;2024-01-27T02:17:07;5.4;69.3
78536;SHT31;67829;51.968;5.684;2024-01-27T02:19:36;5.4;69.0
78536;SHT31;67829;51.968;5.684;2024-01-27T02:22:05;5.4;68.9
78536;SHT31;67829;51.968;5.684;2024-01-27T02:24:33;5.4;69.3
78536;SHT31;67829;51.968;5.684;2024-01-27T02:27:01;5.4;69.0
78536;SHT31;67829;51.968;5.684;2024-01-27T02:29:30;5.4;69.3
78536;SHT31;67829;51.968;5.684;2024-01-27T02:32:00;5.3;69.3
78536;SHT31;67829;51.968;5.684;2024-01-27T02:34:29;5.3;69.4
78536;SHT31;67829;51.968;5.684;2024-01-27T02:36:57;5.3;68.8
78536;SHT31;67829;51.968;5.684;2024-01-27T02:39:26;5.3;68.8
78536;SHT31;67829;51.968;5.684;2024-01-27T02:41:54;5.3;69.3
78536;SHT31;67829;51.968;5.684;2024-01-27T02:44:23;5.3;69.5
78536;SHT31;67829;51.968;5.684;2024-01-27T02:46:52;5.3;69.5
78536;SHT31;67829;51.968;5.684;2024-01-27T02:49:20;5.3;69.5
78536;SHT31;67829;51.968;5.684;2024-01-27T02:51:48;5.2;69.8
78536;SHT31;67829;51.968;5.684;2024-01-27T02:54:17;5.2;70.0
78536;SHT31;67829;51.968;5.684;2024-01-27T02:56:46;5.2;70.2
78536;SHT31;67829;51.968;5.684;2024-01-27T02:59:16;5.2;70.3
78536;SHT31;67829;51.968;5.684;2024-01-27T03:01:44;5.1;70.5
78536;SHT31;67829;51.968;5.684;2024-01-27T03:04:13;5.1;70.7
78536;SHT31;67829;51.968;5.684;2024-01-27T03:06:42;5.1;70.9
78536;SHT31;67829;51.968;5.684;2024-01-27T03:09:11;5.1;71.1
78536;SHT31;67829;51.968;5.684;2024-01-27T03:11:40;5.1;71.0
78536;SHT31;67829;51.968;5.684;2024-01-27T03:14:08;5.1;71.2
78536;SHT31;67829;51.968;5.684;2024-01-27T03:16:37;5.1;71.2
78536;SHT31;67829;51.968;5.684;2024-01-27T03:19:06;5.1;71.2
78536;SHT31;67829;51.968;5.684;2024-01-27T03:21:34;5.1;71.2
78536;SHT31;67829;51.968;5.684;2024-01-27T03:24:03;5.0;71.4
78536;SHT31;67829;51.968;5.684;2024-01-27T03:26:33;5.0;71.5
78536;SHT31;67829;51.968;5.684;2024-01-27T03:29:02;5.0;71.6
78536;SHT31;67829;51.968;5.684;2024-01-27T03:31:34;5.0;71.4
78536;SHT31;67829;51.968;5.684;2024-01-27T03:34:03;5.0;71.4
78536;SHT31;67829;51.968;5.684;2024-01-27T03:36:32;5.0;71.3
78536;SHT31;67829;51.968;5.684;2024-01-27T03:39:02;5.0;71.4
78536;SHT31;67829;51.968;5.684;2024-01-27T03:41:31;5.0;71.0
78536;SHT31;67829;51.968;5.684;2024-01-27T03:43:59;4.9;70.8
78536;SHT31;67829;51.968;5.684;2024-01-27T03:46:28;4.9;70.8
78536;SHT31;67829;51.968;5.684;2024-01-27T03:48:56;4.9;71.0
78536;SHT31;67829;51.968;5.684;2024-01-27T03:51:24;4.9;71.1
78536;SHT31;67829;51.968;5.684;2024-01-27T03:53:53;4.9;71.2
78536;SHT31;67829;51.968;5.684;2024-01-27T03:56:21;4.9;71.1
78536;SHT31;67829;51.968;5.684;2024-01-27T03:58:50;4.9;71.4
78536;SHT31;67829;51.968;5.684;2024-01-27T04:01:18;4.9;71.6
78536;SHT31;67829;51.968;5.684;2024-01-27T04:03:47;4.9;71.4
78536;SHT31;67829;51.968;5.684;2024-01-27T04:06:15;4.9;71.6
78536;SHT31;67829;51.968;5.684;2024-01-27T04:08:44;4.9;71.6
78536;SHT31;67829;51.968;5.684;2024-01-27T04:11:21;4.8;72.0
78536;SHT31;67829;51.968;5.684;2024-01-27T04:13:50;4.8;72.1
78536;SHT31;67829;51.968;5.684;2024-01-27T04:16:19;4.8;72.3
78536;SHT31;67829;51.968;5.684;2024-01-27T04:18:48;4.8;72.3
78536;SHT31;67829;51.968;5.684;2024-01-27T04:21:16;4.8;72.5
78536;SHT31;67829;51.968;5.684;2024-01-27T04:23:45;4.8;72.3
78536;SHT31;67829;51.968;5.684;2024-01-27T04:26:13;4.8;72.5
78536;SHT31;67829;51.968;5.684;2024-01-27T04:28:42;4.8;72.6
78536;SHT31;67829;51.968;5.684;2024-01-27T04:31:13;4.8;72.6
78536;SHT31;67829;51.968;5.684;2024-01-27T04:33:42;4.8;72.6
78536;SHT31;67829;51.968;5.684;2024-01-27T04:36:11;4.8;73.0
78536;SHT31;67829;51.968;5.684;2024-01-27T04:38:39;4.8;73.2
78536;SHT31;67829;51.968;5.684;2024-01-27T04:41:08;4.8;73.4
78536;SHT31;67829;51.968;5.684;2024-01-27T04:43:36;4.8;73.3
78536;SHT31;67829;51.968;5.684;2024-01-27T04:46:05;4.8;72.9
78536;SHT31;67829;51.968;5.684;2024-01-27T04:48:34;4.8;72.5
78536;SHT31;67829;51.968;5.684;2024-01-27T04:51:02;4.8;72.3
78536;SHT31;67829;51.968;5.684;2024-01-27T04:53:31;4.8;72.1
78536;SHT31;67829;51.968;5.684;2024-01-27T04:55:59;4.7;72.0
78536;SHT31;67829;51.968;5.684;2024-01-27T04:58:28;4.7;72.1
78536;SHT31;67829;51.968;5.684;2024-01-27T05:00:57;4.7;71.6
78536;SHT31;67829;51.968;5.684;2024-01-27T05:03:25;4.7;71.2
78536;SHT31;67829;51.968;5.684;2024-01-27T05:05:53;4.7;71.4
78536;SHT31;67829;51.968;5.684;2024-01-27T05:08:24;4.7;71.5
78536;SHT31;67829;51.968;5.684;2024-01-27T05:10:52;4.7;71.8
78536;SHT31;67829;51.968;5.684;2024-01-27T05:13:21;4.7;72.3
78536;SHT31;67829;51.968;5.684;2024-01-27T05:15:49;4.7;72.4
78536;SHT31;67829;51.968;5.684;2024-01-27T05:18:18;4.7;72.3
78536;SHT31;67829;51.968;5.684;2024-01-27T05:20:47;4.7;72.5
78536;SHT31;67829;51.968;5.684;2024-01-27T05:23:15;4.6;72.6
78536;SHT31;67829;51.968;5.684;2024-01-27T05:25:44;4.6;72.5
78536;SHT31;67829;51.968;5.684;2024-01-27T05:28:13;4.6;72.4
78536;SHT31;67829;51.968;5.684;2024-01-27T05:30:41;4.6;72.5
78536;SHT31;67829;51.968;5.684;2024-01-27T05:33:10;4.6;72.9
78536;SHT31;67829;51.968;5.684;2024-01-27T05:35:38;4.6;72.7
78536;SHT31;67829;51.968;5.684;2024-01-27T05:38:07;4.6;72.7
78536;SHT31;67829;51.968;5.684;2024-01-27T05:40:35;4.6;72.9
78536;SHT31;67829;51.968;5.684;2024-01-27T05:43:04;4.6;73.0
78536;SHT31;67829;51.968;5.684;2024-01-27T05:45:32;4.6;73.1
78536;SHT31;67829;51.968;5.684;2024-01-27T05:48:01;4.6;73.0
78536;SHT31;67829;51.968;5.684;2024-01-27T05:50:29;4.5;73.1
78536;SHT31;67829;51.968;5.684;2024-01-27T05:52:58;4.5;73.0
78536;SHT31;67829;51.968;5.684;2024-01-27T05:55:27;4.5;72.8
78536;SHT31;67829;51.968;5.684;2024-01-27T05:57:55;4.5;72.4
78536;SHT31;67829;51.968;5.684;2024-01-27T06:00:23;4.5;72.4
78536;SHT31;67829;51.968;5.684;2024-01-27T06:02:52;4.5;72.3
78536;SHT31;67829;51.968;5.684;2024-01-27T06:05:21;4.5;72.2
78536;SHT31;67829;51.968;5.684;2024-01-27T06:07:49;4.5;71.8
78536;SHT31;67829;51.968;5.684;2024-01-27T06:10:18;4.5;72.1
78536;SHT31;67829;51.968;5.684;2024-01-27T06:12:49;4.5;71.7
78536;SHT31;67829;51.968;5.684;2024-01-27T06:15:19;4.5;71.4
78536;SHT31;67829;51.968;5.684;2024-01-27T06:17:47;4.5;71.0
78536;SHT31;67829;51.968;5.684;2024-01-27T06:20:18;4.5;71.0
78536;SHT31;67829;51.968;5.684;2024-01-27T06:22:47;4.5;71.2
78536;SHT31;67829;51.968;5.684;2024-01-27T06:25:16;4.5;71.0
78536;SHT31;67829;51.968;5.684;2024-01-27T06:27:45;4.4;71.0
78536;SHT31;67829;51.968;5.684;2024-01-27T06:30:14;4.4;70.3
78536;SHT31;67829;51.968;5.684;2024-01-27T06:32:44;4.4;69.7
78536;SHT31;67829;51.968;5.684;2024-01-27T06:35:13;4.4;69.1
78536;SHT31;67829;51.968;5.684;2024-01-27T06:37:41;4.4;69.4
78536;SHT31;67829;51.968;5.684;2024-01-27T06:40:11;4.4;69.6
78536;SHT31;67829;51.968;5.684;2024-01-27T06:42:40;4.4;69.0
78536;SHT31;67829;51.968;5.684;2024-01-27T06:45:09;4.4;69.3
78536;SHT31;67829;51.968;5.684;2024-01-27T06:47:38;4.3;70.2
78536;SHT31;67829;51.968;5.684;2024-01-27T06:50:10;4.3;71.0
78536;SHT31;67829;51.968;5.684;2024-01-27T06:52:42;4.3;71.0
78536;SHT31;67829;51.968;5.684;2024-01-27T06:55:12;4.3;71.1
78536;SHT31;67829;51.968;5.684;2024-01-27T06:57:42;4.3;70.7
78536;SHT31;67829;51.968;5.684;2024-01-27T07:00:12;4.3;70.2
78536;SHT31;67829;51.968;5.684;2024-01-27T07:02:42;4.3;70.6
78536;SHT31;67829;51.968;5.684;2024-01-27T07:05:11;4.3;70.6
78536;SHT31;67829;51.968;5.684;2024-01-27T07:07:41;4.3;70.8
78536;SHT31;67829;51.968;5.684;2024-01-27T07:10:10;4.2;70.8
78536;SHT31;67829;51.968;5.684;2024-01-27T07:12:40;4.2;70.6
78536;SHT31;67829;51.968;5.684;2024-01-27T07:15:09;4.2;71.1
78536;SHT31;67829;51.968;5.684;2024-01-27T07:17:38;4.2;71.3
78536;SHT31;67829;51.968;5.684;2024-01-27T07:20:08;4.2;71.0
78536;SHT31;67829;51.968;5.684;2024-01-27T07:22:36;4.2;70.8
78536;SHT31;67829;51.968;5.684;2024-01-27T07:25:06;4.2;70.9
78536;SHT31;67829;51.968;5.684;2024-01-27T07:27:37;4.2;71.2
78536;SHT31;67829;51.968;5.684;2024-01-27T07:30:07;4.2;71.3
78536;SHT31;67829;51.968;5.684;2024-01-27T07:32:38;4.2;71.4
78536;SHT31;67829;51.968;5.684;2024-01-27T07:35:08;4.2;71.6
78536;SHT31;67829;51.968;5.684;2024-01-27T07:37:36;4.2;72.1
78536;SHT31;67829;51.968;5.684;2024-01-27T07:40:06;4.1;72.2
78536;SHT31;67829;51.968;5.684;2024-01-27T07:42:35;4.1;72.4
78536;SHT31;67829;51.968;5.684;2024-01-27T07:45:05;4.1;72.5
78536;SHT31;67829;51.968;5.684;2024-01-27T07:47:35;4.1;72.2
78536;SHT31;67829;51.968;5.684;2024-01-27T07:50:04;4.1;72.1
78536;SHT31;67829;51.968;5.684;2024-01-27T07:52:33;4.1;72.2
78536;SHT31;67829;51.968;5.684;2024-01-27T07:55:01;4.1;72.3
78536;SHT31;67829;51.968;5.684;2024-01-27T07:57:30;4.1;72.6
78536;SHT31;67829;51.968;5.684;2024-01-27T07:59:59;4.1;73.4
78536;SHT31;67829;51.968;5.684;2024-01-27T08:02:27;4.1;74.2
78536;SHT31;67829;51.968;5.684;2024-01-27T08:04:55;4.1;74.3
78536;SHT31;67829;51.968;5.684;2024-01-27T08:07:24;4.1;73.7
78536;SHT31;67829;51.968;5.684;2024-01-27T08:09:54;4.1;73.5
78536;SHT31;67829;51.968;5.684;2024-01-27T08:12:24;4.1;73.4
78536;SHT31;67829;51.968;5.684;2024-01-27T08:14:53;4.1;73.3
78536;SHT31;67829;51.968;5.684;2024-01-27T08:17:22;4.1;73.3
78536;SHT31;67829;51.968;5.684;2024-01-27T08:19:51;4.1;73.3
78536;SHT31;67829;51.968;5.684;2024-01-27T08:22:20;4.2;73.6
78536;SHT31;67829;51.968;5.684;2024-01-27T08:24:48;4.2;73.7
78536;SHT31;67829;51.968;5.684;2024-01-27T08:27:17;4.2;73.5
78536;SHT31;67829;51.968;5.684;2024-01-27T08:29:45;4.2;73.8
78536;SHT31;67829;51.968;5.684;2024-01-27T08:32:14;4.2;73.7
78536;SHT31;67829;51.968;5.684;2024-01-27T08:34:42;4.2;73.5
78536;SHT31;67829;51.968;5.684;2024-01-27T08:37:19;4.3;73.6
78536;SHT31;67829;51.968;5.684;2024-01-27T08:39:48;4.3;73.7
78536;SHT31;67829;51.968;5.684;2024-01-27T08:42:18;4.3;74.0
78536;SHT31;67829;51.968;5.684;2024-01-27T08:44:46;4.3;74.0
78536;SHT31;67829;51.968;5.684;2024-01-27T08:47:15;4.4;73.6
78536;SHT31;67829;51.968;5.684;2024-01-27T08:49:43;4.4;73.8
78536;SHT31;67829;51.968;5.684;2024-01-27T08:52:12;4.5;73.4
78536;SHT31;67829;51.968;5.684;2024-01-27T08:54:40;4.5;73.1
78536;SHT31;67829;51.968;5.684;2024-01-27T08:57:10;4.5;73.2
78536;SHT31;67829;51.968;5.684;2024-01-27T08:59:38;4.6;73.3
78536;SHT31;67829;51.968;5.684;2024-01-27T09:02:07;4.6;73.2
78536;SHT31;67829;51.968;5.684;2024-01-27T09:04:36;4.7;73.2
78536;SHT31;67829;51.968;5.684;2024-01-27T09:07:05;4.7;73.3
78536;SHT31;67829;51.968;5.684;2024-01-27T09:09:33;4.7;73.5
78536;SHT31;67829;51.968;5.684;2024-01-27T09:12:05;4.8;73.4
78536;SHT31;67829;51.968;5.684;2024-01-27T09:14:33;4.8;73.6
78536;SHT31;67829;51.968;5.684;2024-01-27T09:17:03;4.9;73.6
78536;SHT31;67829;51.968;5.684;2024-01-27T09:19:31;4.9;73.5
78536;SHT31;67829;51.968;5.684;2024-01-27T09:22:00;5.0;73.4
78536;SHT31;67829;51.968;5.684;2024-01-27T09:24:28;5.0;73.4
78536;SHT31;67829;51.968;5.684;2024-01-27T09:26:57;5.1;73.3
78536;SHT31;67829;51.968;5.684;2024-01-27T09:29:25;5.1;73.4
78536;SHT31;67829;51.968;5.684;2024-01-27T09:31:54;5.2;73.1
78536;SHT31;67829;51.968;5.684;2024-01-27T09:34:23;5.2;72.9
78536;SHT31;67829;51.968;5.684;2024-01-27T09:36:51;5.3;72.7
78536;SHT31;67829;51.968;5.684;2024-01-27T09:39:20;5.3;72.5
78536;SHT31;67829;51.968;5.684;2024-01-27T09:41:50;5.3;72.6
78536;SHT31;67829;51.968;5.684;2024-01-27T09:44:19;5.3;72.8
78536;SHT31;67829;51.968;5.684;2024-01-27T09:46:48;5.4;72.9
78536;SHT31;67829;51.968;5.684;2024-01-27T09:49:17;5.4;73.0
78536;SHT31;67829;51.968;5.684;2024-01-27T09:51:45;5.4;73.1
78536;SHT31;67829;51.968;5.684;2024-01-27T09:54:15;5.5;73.0
78536;SHT31;67829;51.968;5.684;2024-01-27T09:56:46;5.5;73.0
78536;SHT31;67829;51.968;5.684;2024-01-27T09:59:16;5.5;72.9
78536;SHT31;67829;51.968;5.684;2024-01-27T10:01:45;5.6;73.1
78536;SHT31;67829;51.968;5.684;2024-01-27T10:04:14;5.6;72.9
78536;SHT31;67829;51.968;5.684;2024-01-27T10:06:43;5.6;72.7
78536;SHT31;67829;51.968;5.684;2024-01-27T10:09:14;5.7;72.7
78536;SHT31;67829;51.968;5.684;2024-01-27T10:11:46;5.7;72.4
78536;SHT31;67829;51.968;5.684;2024-01-27T10:14:15;5.7;72.4
78536;SHT31;67829;51.968;5.684;2024-01-27T10:16:45;5.7;72.3
78536;SHT31;67829;51.968;5.684;2024-01-27T10:19:15;5.8;71.8
78536;SHT31;67829;51.968;5.684;2024-01-27T10:21:46;5.8;71.8
78536;SHT31;67829;51.968;5.684;2024-01-27T10:24:15;5.8;71.8
78536;SHT31;67829;51.968;5.684;2024-01-27T10:26:44;5.9;72.2
78536;SHT31;67829;51.968;5.684;2024-01-27T10:29:14;5.9;72.3
78536;SHT31;67829;51.968;5.684;2024-01-27T10:31:42;5.9;72.1
78536;SHT31;67829;51.968;5.684;2024-01-27T10:34:11;6.0;71.7
78536;SHT31;67829;51.968;5.684;2024-01-27T10:36:42;6.0;71.8
78536;SHT31;67829;51.968;5.684;2024-01-27T10:39:20;6.0;71.3
78536;SHT31;67829;51.968;5.684;2024-01-27T10:41:52;6.1;71.6
78536;SHT31;67829;51.968;5.684;2024-01-27T10:44:20;6.1;71.4
78536;SHT31;67829;51.968;5.684;2024-01-27T10:46:49;6.1;71.2
78536;SHT31;67829;51.968;5.684;2024-01-27T10:49:18;6.2;70.9
78536;SHT31;67829;51.968;5.684;2024-01-27T10:51:55;6.2;71.1
78536;SHT31;67829;51.968;5.684;2024-01-27T10:54:27;6.2;71.1
78536;SHT31;67829;51.968;5.684;2024-01-27T10:56:57;6.2;70.7
78536;SHT31;67829;51.968;5.684;2024-01-27T10:59:31;6.3;71.0
78536;SHT31;67829;51.968;5.684;2024-01-27T11:02:00;6.3;71.2
78536;SHT31;67829;51.968;5.684;2024-01-27T11:04:30;6.3;71.4
78536;SHT31;67829;51.968;5.684;2024-01-27T11:07:03;6.3;71.4
78536;SHT31;67829;51.968;5.684;2024-01-27T11:09:35;6.4;71.6
78536;SHT31;67829;51.968;5.684;2024-01-27T11:12:06;6.4;72.0
78536;SHT31;67829;51.968;5.684;2024-01-27T11:14:36;6.5;72.3
78536;SHT31;67829;51.968;5.684;2024-01-27T11:17:05;6.5;72.0
78536;SHT31;67829;51.968;5.684;2024-01-27T11:19:34;6.6;72.5
78536;SHT31;67829;51.968;5.684;2024-01-27T11:22:04;6.6;72.8
78536;SHT31;67829;51.968;5.684;2024-01-27T11:24:33;6.7;72.1
78536;SHT31;67829;51.968;5.684;2024-01-27T11:27:03;6.7;71.7
78536;SHT31;67829;51.968;5.684;2024-01-27T11:29:33;6.8;71.1
78536;SHT31;67829;51.968;5.684;2024-01-27T11:32:03;6.8;70.6
78536;SHT31;67829;51.968;5.684;2024-01-27T11:34:43;6.9;71.5
78536;SHT31;67829;51.968;5.684;2024-01-27T11:37:15;6.9;70.4
78536;SHT31;67829;51.968;5.684;2024-01-27T11:39:46;7.0;70.1
78536;SHT31;67829;51.968;5.684;2024-01-27T11:42:16;7.0;70.3
78536;SHT31;67829;51.968;5.684;2024-01-27T11:44:45;7.1;70.2
78536;SHT31;67829;51.968;5.684;2024-01-27T11:47:18;7.1;69.8
78536;SHT31;67829;51.968;5.684;2024-01-27T11:49:53;7.2;69.2
78536;SHT31;67829;51.968;5.684;2024-01-27T11:52:24;7.2;68.9
78536;SHT31;67829;51.968;5.684;2024-01-27T11:54:58;7.2;68.4
78536;SHT31;67829;51.968;5.684;2024-01-27T11:57:29;7.3;68.3
78536;SHT31;67829;51.968;5.684;2024-01-27T11:59:57;7.3;68.2
78536;SHT31;67829;51.968;5.684;2024-01-27T12:02:26;7.4;68.3
78536;SHT31;67829;51.968;5.684;2024-01-27T12:04:55;7.4;68.8
78536;SHT31;67829;51.968;5.684;2024-01-27T12:07:26;7.4;68.3
78536;SHT31;67829;51.968;5.684;2024-01-27T12:09:55;7.5;68.3
78536;SHT31;67829;51.968;5.684;2024-01-27T12:12:25;7.5;68.1
78536;SHT31;67829;51.968;5.684;2024-01-27T12:14:54;7.6;68.4
78536;SHT31;67829;51.968;5.684;2024-01-27T12:17:23;7.6;67.7
78536;SHT31;67829;51.968;5.684;2024-01-27T12:19:52;7.6;67.6
78536;SHT31;67829;51.968;5.684;2024-01-27T12:22:26;7.7;67.6
78536;SHT31;67829;51.968;5.684;2024-01-27T12:25:07;7.7;68.0
78536;SHT31;67829;51.968;5.684;2024-01-27T12:27:29;7.8;66.8
78536;SHT31;67829;51.968;5.684;2024-01-27T12:29:58;7.8;66.4
78536;SHT31;67829;51.968;5.684;2024-01-27T12:32:29;7.9;66.7
78536;SHT31;67829;51.968;5.684;2024-01-27T12:35:06;7.9;66.3
78536;SHT31;67829;51.968;5.684;2024-01-27T12:37:35;8.0;66.1
78536;SHT31;67829;51.968;5.684;2024-01-27T12:40:18;8.0;65.8
78536;SHT31;67829;51.968;5.684;2024-01-27T12:42:47;8.1;65.4
78536;SHT31;67829;51.968;5.684;2024-01-27T12:45:16;8.1;65.1
78536;SHT31;67829;51.968;5.684;2024-01-27T12:47:45;8.2;65.1
78536;SHT31;67829;51.968;5.684;2024-01-27T12:50:14;8.2;65.0
78536;SHT31;67829;51.968;5.684;2024-01-27T12:52:42;8.2;64.5
78536;SHT31;67829;51.968;5.684;2024-01-27T12:55:11;8.3;64.5
78536;SHT31;67829;51.968;5.684;2024-01-27T12:57:40;8.3;64.4
78536;SHT31;67829;51.968;5.684;2024-01-27T13:00:09;8.3;64.6
78536;SHT31;67829;51.968;5.684;2024-01-27T13:02:39;8.3;64.0
78536;SHT31;67829;51.968;5.684;2024-01-27T13:05:10;8.4;64.5
78536;SHT31;67829;51.968;5.684;2024-01-27T13:07:40;8.4;64.5
78536;SHT31;67829;51.968;5.684;2024-01-27T13:10:09;8.4;64.5
78536;SHT31;67829;51.968;5.684;2024-01-27T13:12:37;8.4;64.4
78536;SHT31;67829;51.968;5.684;2024-01-27T13:15:07;8.4;63.9
78536;SHT31;67829;51.968;5.684;2024-01-27T13:17:36;8.5;64.3
78536;SHT31;67829;51.968;5.684;2024-01-27T13:20:05;8.5;64.7
78536;SHT31;67829;51.968;5.684;2024-01-27T13:22:35;8.5;64.1
78536;SHT31;67829;51.968;5.684;2024-01-27T13:25:04;8.5;64.8
78536;SHT31;67829;51.968;5.684;2024-01-27T13:27:33;8.6;64.0
78536;SHT31;67829;51.968;5.684;2024-01-27T13:30:02;8.6;64.5
78536;SHT31;67829;51.968;5.684;2024-01-27T13:32:31;8.6;64.5
78536;SHT31;67829;51.968;5.684;2024-01-27T13:35:00;8.6;63.6
78536;SHT31;67829;51.968;5.684;2024-01-27T13:37:28;8.7;63.5
78536;SHT31;67829;51.968;5.684;2024-01-27T13:40:00;8.7;62.7
78536;SHT31;67829;51.968;5.684;2024-01-27T13:42:30;8.7;62.6
78536;SHT31;67829;51.968;5.684;2024-01-27T13:44:59;8.7;62.0
78536;SHT31;67829;51.968;5.684;2024-01-27T13:47:28;8.7;61.6
78536;SHT31;67829;51.968;5.684;2024-01-27T13:49:57;8.7;61.6
78536;SHT31;67829;51.968;5.684;2024-01-27T13:52:26;8.7;61.4
78536;SHT31;67829;51.968;5.684;2024-01-27T13:54:55;8.7;61.5
78536;SHT31;67829;51.968;5.684;2024-01-27T13:57:24;8.7;62.0
78536;SHT31;67829;51.968;5.684;2024-01-27T13:59:53;8.8;62.2
78536;SHT31;67829;51.968;5.684;2024-01-27T14:02:22;8.8;61.3
78536;SHT31;67829;51.968;5.684;2024-01-27T14:04:51;8.8;61.9
78536;SHT31;67829;51.968;5.684;2024-01-27T14:07:20;8.8;61.4
78536;SHT31;67829;51.968;5.684;2024-01-27T14:09:49;8.8;61.5
78536;SHT31;67829;51.968;5.684;2024-01-27T14:12:17;8.9;60.5
78536;SHT31;67829;51.968;5.684;2024-01-27T14:14:49;8.9;60.4
78536;SHT31;67829;51.968;5.684;2024-01-27T14:17:18;8.9;60.7
78536;SHT31;67829;51.968;5.684;2024-01-27T14:19:48;8.9;61.0
78536;SHT31;67829;51.968;5.684;2024-01-27T14:22:16;8.9;60.9
78536;SHT31;67829;51.968;5.684;2024-01-27T14:24:45;8.9;60.0
78536;SHT31;67829;51.968;5.684;2024-01-27T14:27:13;8.9;60.4
78536;SHT31;67829;51.968;5.684;2024-01-27T14:29:44;8.9;60.1
78536;SHT31;67829;51.968;5.684;2024-01-27T14:32:12;8.9;60.2
78536;SHT31;67829;51.968;5.684;2024-01-27T14:34:40;8.9;60.8
78536;SHT31;67829;51.968;5.684;2024-01-27T14:37:09;8.9;60.8
78536;SHT31;67829;51.968;5.684;2024-01-27T14:39:40;8.9;60.6
78536;SHT31;67829;51.968;5.684;2024-01-27T14:42:10;9.0;60.9
78536;SHT31;67829;51.968;5.684;2024-01-27T14:44:39;9.0;60.4
78536;SHT31;67829;51.968;5.684;2024-01-27T14:47:09;9.0;60.0
78536;SHT31;67829;51.968;5.684;2024-01-27T14:49:37;9.0;60.6
78536;SHT31;67829;51.968;5.684;2024-01-27T14:52:07;9.0;60.8
78536;SHT31;67829;51.968;5.684;2024-01-27T14:54:35;9.0;60.9
78536;SHT31;67829;51.968;5.684;2024-01-27T14:57:06;9.0;61.2
78536;SHT31;67829;51.968;5.684;2024-01-27T14:59:36;8.9;60.9
78536;SHT31;67829;51.968;5.684;2024-01-27T15:02:06;8.9;60.7
78536;SHT31;67829;51.968;5.684;2024-01-27T15:04:36;8.9;60.9
78536;SHT31;67829;51.968;5.684;2024-01-27T15:07:05;8.9;61.0
78536;SHT31;67829;51.968;5.684;2024-01-27T15:09:35;8.9;61.2
78536;SHT31;67829;51.968;5.684;2024-01-27T15:12:05;8.9;61.2
78536;SHT31;67829;51.968;5.684;2024-01-27T15:14:34;8.9;61.1
78536;SHT31;67829;51.968;5.684;2024-01-27T15:17:02;8.9;61.6
78536;SHT31;67829;51.968;5.684;2024-01-27T15:19:33;8.9;62.0
78536;SHT31;67829;51.968;5.684;2024-01-27T15:22:03;8.9;61.7
78536;SHT31;67829;51.968;5.684;2024-01-27T15:24:32;8.9;61.7
78536;SHT31;67829;51.968;5.684;2024-01-27T15:27:03;8.9;61.8
78536;SHT31;67829;51.968;5.684;2024-01-27T15:29:32;8.9;62.3
78536;SHT31;67829;51.968;5.684;2024-01-27T15:32:01;8.8;62.6
78536;SHT31;67829;51.968;5.684;2024-01-27T15:34:29;8.8;62.5
78536;SHT31;67829;51.968;5.684;2024-01-27T15:36:58;8.8;62.3
78536;SHT31;67829;51.968;5.684;2024-01-27T15:39:26;8.9;62.3
78536;SHT31;67829;51.968;5.684;2024-01-27T15:41:55;8.9;62.1
78536;SHT31;67829;51.968;5.684;2024-01-27T15:44:24;8.9;62.0
78536;SHT31;67829;51.968;5.684;2024-01-27T15:46:53;8.8;61.5
78536;SHT31;67829;51.968;5.684;2024-01-27T15:49:23;8.8;61.5
78536;SHT31;67829;51.968;5.684;2024-01-27T15:51:52;8.8;61.2
78536;SHT31;67829;51.968;5.684;2024-01-27T15:54:21;8.8;61.6
78536;SHT31;67829;51.968;5.684;2024-01-27T15:56:49;8.8;61.7
78536;SHT31;67829;51.968;5.684;2024-01-27T15:59:20;8.8;61.9
78536;SHT31;67829;51.968;5.684;2024-01-27T16:01:48;8.8;62.1
78536;SHT31;67829;51.968;5.684;2024-01-27T16:04:19;8.8;62.1
78536;SHT31;67829;51.968;5.684;2024-01-27T16:06:48;8.7;62.2
78536;SHT31;67829;51.968;5.684;2024-01-27T16:09:16;8.7;62.3
78536;SHT31;67829;51.968;5.684;2024-01-27T16:11:44;8.7;62.3
78536;SHT31;67829;51.968;5.684;2024-01-27T16:14:13;8.7;62.3
78536;SHT31;67829;51.968;5.684;2024-01-27T16:16:43;8.7;62.4
78536;SHT31;67829;51.968;5.684;2024-01-27T16:19:11;8.6;62.3
78536;SHT31;67829;51.968;5.684;2024-01-27T16:21:39;8.6;62.3
78536;SHT31;67829;51.968;5.684;2024-01-27T16:24:08;8.6;62.4
78536;SHT31;67829;51.968;5.684;2024-01-27T16:26:37;8.6;62.5
78536;SHT31;67829;51.968;5.684;2024-01-27T16:29:05;8.5;62.5